CYKF

Waterloo Airport

Kitchener, Ontario, Canada

CYKF 271300Z AUTO 27008KT 9SM FEW070 13/09 A2995 RMK SLP145

Observed Flight Rules
Jun-27 @ 13:00 UTC (47 minutes ago)
 
Visual Flight Rules
Wind Visibility Clouds
270° at 8 knots 9 miles
  • Few at 7,000' AGL
Temperatures Readings
Current 13°C / 55°F
Dewpoint 9°C / 48°F
Humidity 77%
Altimeter 29.95" Hg
Pressure 1014.5 hPa
Elevation 317
Observed Flight Rules
Jun-27 @ 13:00 UTC
(47 minutes ago)
 
VFR
Wind Visibility
270° at 8 knots 9 miles
Clouds
  • Few at 7,000' AGL
Temperature Dewpoint
13°C / 55°F 9°C / 48°F
Humidity Altimeter Pressure
77% 29.95" Hg 1014.5 hPa